Time;durP1;ratioP1;P1;durP2;ratioP2;P2;SDS_P1;SDS_P2;PMS_P1;PMS_P2;Temp;Humidity;BMP_temperature;BMP_pressure;BME280_temperature;BME280_humidity;BME280_pressure;Samples;Min_cycle;Max_cycle;Signal;HPM_P1;HPM_P2
2022/05/07 00:00:38;;;;;;;9.95;8.57;;;13.60;99.90;;;;;;2073135;28;20030;-69
2022/05/07 00:01:39;;;;;;;9.23;7.93;;;13.50;99.90;;;;;;2072118;28;20557;-69
2022/05/07 00:02:39;;;;;;;8.48;7.63;;;13.60;99.90;;;;;;2072267;28;20431;-69
2022/05/07 00:03:40;;;;;;;10.07;9.07;;;13.50;99.90;;;;;;2074612;28;20101;-69
2022/05/07 00:04:42;;;;;;;10.10;9.05;;;13.50;99.90;;;;;;2072003;28;20026;-69
2022/05/07 00:05:43;;;;;;;11.82;9.00;;;13.50;99.90;;;;;;2072545;28;20022;-69
2022/05/07 00:06:43;;;;;;;9.20;8.25;;;13.50;99.90;;;;;;2071770;28;20035;-69
2022/05/07 00:07:44;;;;;;;12.80;9.95;;;13.50;99.90;;;;;;2071327;28;20026;-69
2022/05/07 00:08:44;;;;;;;12.80;10.20;;;13.50;99.90;;;;;;2073243;28;20473;-69
2022/05/07 00:09:45;;;;;;;11.10;9.00;;;13.50;99.90;;;;;;2072184;28;20634;-69
2022/05/07 00:10:45;;;;;;;10.18;8.57;;;13.50;99.90;;;;;;2070235;28;20029;-69
2022/05/07 00:11:49;;;;;;;10.80;9.70;;;13.40;99.90;;;;;;2074305;28;20053;-69
2022/05/07 00:12:49;;;;;;;9.93;8.93;;;13.40;99.90;;;;;;2075255;28;20038;-69
2022/05/07 00:13:51;;;;;;;10.60;9.50;;;13.40;99.90;;;;;;2073592;28;20034;-69
2022/05/07 00:14:51;;;;;;;9.77;8.75;;;13.50;99.90;;;;;;2070807;28;20463;-69
2022/05/07 00:18:34;;;;;;;12.10;9.02;;;13.40;99.90;;;;;;2070892;28;20018;-69
2022/05/07 00:19:34;;;;;;;10.27;8.82;;;13.30;99.90;;;;;;2071415;28;20049;-69
2022/05/07 00:20:35;;;;;;;8.93;8.02;;;13.30;99.90;;;;;;2067483;28;20612;-69
2022/05/07 00:21:36;;;;;;;9.57;8.57;;;13.30;99.90;;;;;;2074237;28;20034;-69
2022/05/07 00:22:36;;;;;;;13.27;9.50;;;13.30;99.90;;;;;;2071723;28;20053;-69
2022/05/07 00:23:37;;;;;;;13.40;10.27;;;13.30;99.90;;;;;;2071662;28;20474;-69
2022/05/07 00:24:38;;;;;;;14.07;9.13;;;13.30;99.90;;;;;;2072688;28;20061;-69
2022/05/07 00:25:38;;;;;;;10.77;9.30;;;13.30;99.90;;;;;;2068898;28;20505;-69
2022/05/07 00:26:39;;;;;;;10.55;9.27;;;13.30;99.90;;;;;;2071939;28;20022;-69
2022/05/07 00:27:40;;;;;;;10.75;9.25;;;13.30;99.90;;;;;;2072689;28;20164;-69
2022/05/07 00:28:40;;;;;;;10.20;8.85;;;13.20;99.90;;;;;;2070125;28;20848;-69
2022/05/07 00:31:38;;;;;;;10.88;9.20;;;13.20;99.90;;;;;;2068949;28;20029;-69
2022/05/07 00:32:38;;;;;;;11.05;8.80;;;13.10;99.90;;;;;;2070324;28;20105;-69
2022/05/07 00:33:39;;;;;;;11.55;9.20;;;13.10;99.90;;;;;;2072685;28;20144;-69
2022/05/07 00:34:39;;;;;;;14.20;11.02;;;13.10;99.90;;;;;;2072657;28;20053;-69
2022/05/07 00:35:40;;;;;;;12.07;10.02;;;13.10;99.90;;;;;;2071138;28;20099;-69
2022/05/07 00:36:41;;;;;;;15.18;10.02;;;13.10;99.90;;;;;;2069750;28;20029;-69
2022/05/07 00:37:41;;;;;;;10.27;9.10;;;13.20;99.90;;;;;;2073833;28;20823;-69
2022/05/07 00:38:42;;;;;;;11.57;8.95;;;13.10;99.90;;;;;;2071289;28;20030;-69
2022/05/07 00:39:42;;;;;;;10.48;8.63;;;13.10;99.90;;;;;;2070021;28;20110;-69
2022/05/07 00:40:43;;;;;;;12.52;9.50;;;13.10;99.90;;;;;;2069408;28;20022;-69
2022/05/07 00:41:43;;;;;;;11.25;10.05;;;13.10;99.90;;;;;;2070867;28;20022;-69
2022/05/07 00:42:44;;;;;;;11.55;10.32;;;13.10;99.90;;;;;;2069125;28;20029;-69
2022/05/07 00:43:44;;;;;;;11.20;9.52;;;13.10;99.90;;;;;;2074306;28;20105;-69
2022/05/07 00:44:45;;;;;;;11.70;9.85;;;13.10;99.90;;;;;;2070963;28;20069;-69
2022/05/07 00:45:46;;;;;;;12.15;9.60;;;13.10;99.90;;;;;;2069046;28;20033;-69
2022/05/07 00:46:48;;;;;;;11.25;9.30;;;13.10;99.90;;;;;;2073314;28;20029;-69
2022/05/07 00:47:50;;;;;;;11.02;9.73;;;13.00;99.90;;;;;;2069020;28;20022;-69
2022/05/07 00:48:51;;;;;;;11.10;9.70;;;13.10;99.90;;;;;;2071601;28;20033;-69
2022/05/07 00:49:54;;;;;;;11.50;10.35;;;13.00;99.90;;;;;;2071805;28;20065;-69
2022/05/07 00:52:15;;;;;;;12.52;10.10;;;13.00;99.90;;;;;;2073702;28;20026;-69
2022/05/07 00:53:15;;;;;;;10.43;9.32;;;12.90;99.90;;;;;;2072001;28;20053;-69
2022/05/07 00:54:17;;;;;;;9.85;8.85;;;12.90;99.90;;;;;;2074257;28;20390;-69
2022/05/07 00:55:17;;;;;;;11.38;10.18;;;13.00;99.90;;;;;;2072446;28;20405;-69
2022/05/07 00:56:18;;;;;;;10.23;8.57;;;12.90;99.90;;;;;;2069424;28;20052;-69
2022/05/07 00:57:19;;;;;;;10.10;8.77;;;12.90;99.90;;;;;;2072342;28;20105;-69
2022/05/07 00:58:19;;;;;;;13.50;10.25;;;12.90;99.90;;;;;;2073545;28;20374;-69
2022/05/07 00:59:20;;;;;;;10.27;9.23;;;12.90;99.90;;;;;;2073516;28;20113;-69
2022/05/07 01:00:20;;;;;;;11.65;10.45;;;12.90;99.90;;;;;;2073859;28;20029;-69
2022/05/07 01:01:21;;;;;;;12.32;11.02;;;12.90;99.90;;;;;;2068521;28;20033;-69
2022/05/07 01:02:22;;;;;;;11.80;9.50;;;12.90;99.90;;;;;;2071055;28;20036;-69
2022/05/07 01:03:22;;;;;;;10.55;9.07;;;12.90;99.90;;;;;;2071469;28;20017;-69
2022/05/07 01:04:24;;;;;;;11.23;9.93;;;12.90;99.90;;;;;;2070880;28;20034;-69
2022/05/07 01:05:24;;;;;;;9.63;8.68;;;12.90;99.90;;;;;;2069964;28;20121;-69
2022/05/07 01:06:25;;;;;;;12.02;10.57;;;12.80;99.90;;;;;;2072955;28;20026;-69
2022/05/07 01:07:26;;;;;;;10.70;9.63;;;12.80;99.90;;;;;;2068396;28;20030;-69
2022/05/07 01:08:29;;;;;;;10.57;8.77;;;12.80;99.90;;;;;;2071895;28;20032;-69
2022/05/07 01:09:31;;;;;;;13.10;10.05;;;12.80;99.90;;;;;;2072204;28;20033;-69
2022/05/07 01:10:32;;;;;;;11.05;9.88;;;12.80;99.90;;;;;;2070159;28;20026;-69
2022/05/07 01:11:33;;;;;;;9.82;8.82;;;12.80;99.90;;;;;;2068815;28;20420;-69
2022/05/07 01:12:35;;;;;;;11.90;10.63;;;12.80;99.90;;;;;;2070192;28;20049;-69
2022/05/07 01:13:37;;;;;;;11.18;9.80;;;12.80;99.90;;;;;;2073398;28;20029;-69
2022/05/07 01:14:38;;;;;;;11.27;9.32;;;12.80;99.90;;;;;;2069173;28;20112;-69
2022/05/07 01:15:46;;;;;;;11.60;10.18;;;12.80;99.90;;;;;;2074646;28;20017;-69
2022/05/07 01:16:46;;;;;;;11.52;10.32;;;12.80;99.90;;;;;;2072968;28;20022;-69
2022/05/07 01:17:47;;;;;;;12.40;10.27;;;12.70;99.90;;;;;;2072711;28;20030;-69
2022/05/07 01:18:47;;;;;;;11.13;9.95;;;12.70;99.90;;;;;;2072889;28;20030;-69
2022/05/07 01:19:52;;;;;;;10.70;9.57;;;12.70;99.90;;;;;;2071281;28;20026;-69
2022/05/07 01:20:55;;;;;;;11.68;10.48;;;12.70;99.90;;;;;;2071218;28;20112;-69
2022/05/07 01:21:56;;;;;;;12.57;10.05;;;12.70;99.90;;;;;;2071347;28;20469;-69
2022/05/07 01:22:56;;;;;;;12.90;10.60;;;12.70;99.90;;;;;;2071796;28;20072;-69
2022/05/07 01:24:00;;;;;;;11.68;10.45;;;12.70;99.90;;;;;;2070785;28;20066;-69
2022/05/07 01:25:02;;;;;;;12.07;10.50;;;12.60;99.90;;;;;;2073075;28;20153;-69
2022/05/07 01:26:02;;;;;;;12.93;10.95;;;12.60;99.90;;;;;;2068012;28;20097;-69
2022/05/07 01:27:03;;;;;;;12.05;10.70;;;12.70;99.90;;;;;;2068579;28;20022;-69
2022/05/07 01:28:04;;;;;;;14.70;11.65;;;12.70;99.90;;;;;;2072746;28;20104;-69
2022/05/07 01:29:05;;;;;;;11.73;9.90;;;12.70;99.90;;;;;;2070119;28;20514;-69
2022/05/07 01:30:07;;;;;;;14.00;11.25;;;12.60;99.90;;;;;;2076240;28;20060;-69
2022/05/07 01:31:07;;;;;;;10.82;9.75;;;12.60;99.90;;;;;;2073675;28;20068;-69
2022/05/07 01:32:08;;;;;;;12.05;10.70;;;12.60;99.90;;;;;;2069210;28;20095;-69
2022/05/07 01:33:08;;;;;;;11.43;9.52;;;12.60;99.90;;;;;;2069524;28;20568;-69
2022/05/07 01:34:09;;;;;;;11.55;10.43;;;12.60;99.90;;;;;;2071310;28;20095;-69
2022/05/07 01:35:09;;;;;;;10.05;8.60;;;12.60;99.90;;;;;;2069961;28;20105;-69
2022/05/07 01:36:13;;;;;;;11.15;9.43;;;12.50;99.90;;;;;;2066157;28;20047;-69
2022/05/07 01:37:14;;;;;;;9.88;8.35;;;12.50;99.90;;;;;;2071279;28;20036;-69
2022/05/07 01:38:14;;;;;;;12.13;9.63;;;12.50;99.90;;;;;;2068134;28;20022;-69
2022/05/07 01:39:15;;;;;;;11.00;9.90;;;12.50;99.90;;;;;;2071947;28;20080;-69
2022/05/07 01:40:15;;;;;;;12.45;10.57;;;12.50;99.90;;;;;;2068505;28;20026;-69
2022/05/07 01:41:16;;;;;;;10.82;9.27;;;12.50;99.90;;;;;;2068385;28;20053;-69
2022/05/07 01:42:17;;;;;;;12.57;11.27;;;12.50;99.90;;;;;;2070502;28;20559;-69
2022/05/07 01:43:17;;;;;;;11.20;9.73;;;12.50;99.90;;;;;;2069234;28;20021;-69
2022/05/07 01:44:18;;;;;;;11.30;9.43;;;12.50;99.90;;;;;;2072365;28;20092;-69
2022/05/07 01:45:19;;;;;;;12.10;9.57;;;12.50;99.90;;;;;;2066420;28;20040;-69
2022/05/07 01:48:59;;;;;;;11.68;9.82;;;12.40;99.90;;;;;;2080800;28;20455;-69
2022/05/07 01:50:00;;;;;;;12.93;11.10;;;12.40;99.90;;;;;;2074783;28;20060;-69
2022/05/07 01:51:01;;;;;;;11.18;9.52;;;12.40;99.90;;;;;;2070630;28;20022;-69
2022/05/07 01:52:01;;;;;;;11.57;9.20;;;12.40;99.90;;;;;;2072326;28;20018;-69
2022/05/07 01:53:02;;;;;;;11.82;10.55;;;12.40;99.90;;;;;;2068135;28;20109;-69
2022/05/07 01:54:03;;;;;;;12.10;10.43;;;12.40;99.90;;;;;;2069643;28;20022;-69
2022/05/07 01:55:04;;;;;;;13.85;10.80;;;12.40;99.90;;;;;;2070775;28;20033;-69
2022/05/07 01:56:04;;;;;;;11.20;9.63;;;12.40;99.90;;;;;;2063350;28;20540;-69
2022/05/07 01:57:05;;;;;;;12.30;10.82;;;12.40;99.90;;;;;;2062280;28;20081;-69
2022/05/07 01:58:06;;;;;;;12.98;10.75;;;12.40;99.90;;;;;;2069876;28;20076;-69
2022/05/07 01:59:07;;;;;;;13.15;11.85;;;12.40;99.90;;;;;;2069621;28;20060;-69
2022/05/07 02:00:08;;;;;;;12.35;10.25;;;12.30;99.90;;;;;;2073965;28;20026;-69
2022/05/07 02:01:10;;;;;;;11.80;10.30;;;12.40;99.90;;;;;;2069007;28;20664;-69
2022/05/07 02:02:11;;;;;;;14.65;12.00;;;12.30;99.90;;;;;;2072136;28;20025;-69
2022/05/07 02:03:11;;;;;;;13.27;11.93;;;12.40;99.90;;;;;;2073970;28;20695;-69
2022/05/07 02:04:12;;;;;;;13.88;11.23;;;12.30;99.90;;;;;;2070107;28;20025;-69
2022/05/07 02:05:12;;;;;;;12.93;11.35;;;12.30;99.90;;;;;;2071864;28;20740;-69
2022/05/07 02:06:13;;;;;;;12.18;10.93;;;12.30;99.90;;;;;;2069983;28;20080;-69
2022/05/07 02:07:13;;;;;;;12.32;11.10;;;12.30;99.90;;;;;;2073050;28;20021;-69
2022/05/07 02:08:14;;;;;;;12.23;10.82;;;12.30;99.90;;;;;;2070385;28;20089;-69
2022/05/07 02:09:14;;;;;;;12.90;11.57;;;12.30;99.90;;;;;;2070134;28;20105;-69
2022/05/07 02:10:15;;;;;;;13.13;11.70;;;12.30;99.90;;;;;;2070957;28;20107;-69
2022/05/07 02:11:15;;;;;;;13.45;10.63;;;12.30;99.90;;;;;;2070567;28;20044;-69
2022/05/07 02:12:16;;;;;;;13.15;11.75;;;12.30;99.90;;;;;;2071352;28;20053;-69
2022/05/07 02:13:17;;;;;;;14.25;12.75;;;12.30;99.90;;;;;;2069574;28;20041;-69
2022/05/07 02:14:17;;;;;;;14.93;12.43;;;12.30;99.90;;;;;;2067835;28;20031;-69
2022/05/07 02:15:18;;;;;;;15.40;13.50;;;12.30;99.90;;;;;;2069866;28;20040;-69
2022/05/07 02:16:19;;;;;;;16.33;13.55;;;12.30;99.90;;;;;;2071154;28;20021;-69
2022/05/07 02:17:19;;;;;;;13.57;11.98;;;12.30;99.90;;;;;;2068181;28;20366;-69
2022/05/07 02:18:20;;;;;;;13.23;11.93;;;12.30;99.90;;;;;;2075765;28;20551;-69
2022/05/07 02:19:20;;;;;;;15.02;13.18;;;12.30;99.90;;;;;;2074315;28;20029;-69
2022/05/07 02:20:21;;;;;;;14.85;13.32;;;12.30;99.90;;;;;;2070738;28;20030;-69
2022/05/07 02:21:22;;;;;;;13.90;12.50;;;12.30;99.90;;;;;;2071015;28;20030;-69
2022/05/07 02:22:22;;;;;;;12.13;10.85;;;12.30;99.90;;;;;;2069724;28;20052;-69
2022/05/07 02:23:23;;;;;;;10.60;9.23;;;12.30;99.90;;;;;;2068176;28;20110;-69
2022/05/07 02:24:23;;;;;;;13.93;11.07;;;12.30;99.90;;;;;;2069726;28;20133;-69
2022/05/07 02:25:25;;;;;;;14.40;12.40;;;12.30;99.90;;;;;;2067473;28;20114;-69
2022/05/07 02:26:25;;;;;;;14.32;12.23;;;12.30;99.90;;;;;;2071049;28;20064;-69
2022/05/07 02:27:26;;;;;;;14.73;13.23;;;12.30;99.90;;;;;;2073952;28;20025;-69
2022/05/07 02:28:26;;;;;;;16.50;13.73;;;12.30;99.90;;;;;;2069538;28;20027;-69
2022/05/07 02:29:27;;;;;;;13.23;11.80;;;12.30;99.90;;;;;;2071887;28;20029;-69
2022/05/07 02:30:27;;;;;;;12.02;9.93;;;12.30;99.90;;;;;;2072481;28;20477;-69
2022/05/07 02:31:28;;;;;;;13.15;11.18;;;12.20;99.90;;;;;;2069691;28;20478;-69
2022/05/07 02:32:29;;;;;;;14.00;12.45;;;12.20;99.90;;;;;;2069497;28;20492;-69
2022/05/07 02:33:29;;;;;;;11.63;10.43;;;12.30;99.90;;;;;;2074322;28;20087;-69
2022/05/07 02:34:33;;;;;;;11.35;10.18;;;12.20;99.90;;;;;;2070018;28;20045;-69
2022/05/07 02:35:34;;;;;;;11.32;10.18;;;12.20;99.90;;;;;;2069554;28;20045;-69
2022/05/07 02:36:34;;;;;;;11.35;10.15;;;12.20;99.90;;;;;;2069995;28;20074;-69
2022/05/07 02:37:36;;;;;;;10.93;9.85;;;12.20;99.90;;;;;;2070977;28;20041;-69
2022/05/07 02:38:38;;;;;;;12.52;11.23;;;12.20;99.90;;;;;;2072456;28;20030;-69
2022/05/07 02:39:39;;;;;;;14.65;11.27;;;12.20;99.90;;;;;;2073122;28;20018;-69
2022/05/07 02:43:19;;;;;;;14.15;11.63;;;12.20;99.90;;;;;;2070442;28;20026;-69
2022/05/07 02:44:19;;;;;;;14.00;12.25;;;12.20;99.90;;;;;;2068498;28;20029;-69
2022/05/07 02:45:20;;;;;;;13.05;11.10;;;12.20;99.90;;;;;;2071947;28;20022;-69
2022/05/07 02:46:20;;;;;;;15.27;12.65;;;12.20;99.90;;;;;;2068955;28;20484;-69
2022/05/07 02:47:21;;;;;;;13.45;12.10;;;12.10;99.90;;;;;;2067630;28;20821;-69
2022/05/07 02:48:22;;;;;;;14.30;12.90;;;12.10;99.90;;;;;;2068134;28;20025;-69
2022/05/07 02:49:22;;;;;;;14.10;12.02;;;12.20;99.90;;;;;;2072268;28;20113;-69
2022/05/07 02:50:23;;;;;;;13.57;12.25;;;12.10;99.90;;;;;;2066067;28;20014;-69
2022/05/07 02:51:24;;;;;;;16.08;13.48;;;12.10;99.90;;;;;;2070481;28;20440;-69
2022/05/07 02:52:24;;;;;;;12.90;10.77;;;12.10;99.90;;;;;;2071119;28;20040;-69
2022/05/07 02:53:25;;;;;;;14.88;12.98;;;12.10;99.90;;;;;;2069319;28;20040;-69
2022/05/07 02:54:26;;;;;;;13.95;11.45;;;12.10;99.90;;;;;;2067168;28;20021;-69
2022/05/07 02:55:26;;;;;;;14.90;13.27;;;12.10;99.90;;;;;;2071228;28;20544;-69
2022/05/07 02:56:27;;;;;;;14.52;12.90;;;12.10;99.90;;;;;;2067059;28;20751;-69
2022/05/07 02:57:28;;;;;;;12.90;11.60;;;12.10;99.90;;;;;;2070699;28;20041;-69
2022/05/07 02:58:28;;;;;;;13.93;11.90;;;12.10;99.90;;;;;;2070885;28;20362;-69
2022/05/07 02:59:29;;;;;;;12.55;10.70;;;12.10;99.90;;;;;;2069102;28;20085;-69
2022/05/07 03:00:30;;;;;;;14.48;11.60;;;12.10;99.90;;;;;;2073442;28;20034;-69
2022/05/07 03:01:31;;;;;;;13.57;12.15;;;12.10;99.90;;;;;;2071160;28;20059;-69
2022/05/07 03:02:31;;;;;;;13.25;11.95;;;12.10;99.90;;;;;;2067678;28;20018;-69
2022/05/07 03:03:32;;;;;;;13.23;11.82;;;12.10;99.90;;;;;;2070160;28;20030;-69
2022/05/07 03:04:33;;;;;;;14.52;13.05;;;12.10;99.90;;;;;;2071048;28;20013;-69
2022/05/07 03:05:34;;;;;;;15.35;11.68;;;12.10;99.90;;;;;;2068160;28;20165;-69
2022/05/07 03:06:35;;;;;;;13.15;11.80;;;12.10;99.90;;;;;;2068752;28;20018;-69
2022/05/07 03:07:35;;;;;;;15.38;12.43;;;12.10;99.90;;;;;;2066980;28;20026;-69
2022/05/07 03:08:36;;;;;;;14.40;12.88;;;12.10;99.90;;;;;;2068808;28;20029;-69
2022/05/07 03:09:36;;;;;;;13.57;12.18;;;12.10;99.90;;;;;;2068808;28;20030;-69
2022/05/07 03:10:37;;;;;;;15.70;13.73;;;12.10;99.90;;;;;;2073131;28;20096;-69
2022/05/07 03:11:37;;;;;;;13.98;12.57;;;12.10;99.90;;;;;;2070590;28;20014;-69
2022/05/07 03:12:38;;;;;;;14.77;13.13;;;12.10;99.90;;;;;;2070130;28;20049;-69
2022/05/07 03:13:38;;;;;;;16.70;14.35;;;12.10;99.90;;;;;;2073873;28;20440;-69
2022/05/07 03:14:39;;;;;;;15.25;13.40;;;12.10;99.90;;;;;;2069428;28;20034;-69
2022/05/07 03:15:40;;;;;;;17.75;14.70;;;12.10;99.90;;;;;;2068350;28;20050;-69
2022/05/07 03:16:40;;;;;;;15.70;13.80;;;12.10;99.90;;;;;;2067401;28;20034;-69
2022/05/07 03:17:42;;;;;;;16.33;14.25;;;12.10;99.90;;;;;;2070437;28;20046;-69
2022/05/07 03:18:42;;;;;;;17.25;14.68;;;12.10;99.90;;;;;;2067560;28;20474;-69
2022/05/07 03:19:43;;;;;;;19.48;14.57;;;12.10;99.90;;;;;;2069534;28;20065;-69
2022/05/07 03:20:43;;;;;;;17.77;15.05;;;12.10;99.90;;;;;;2068418;28;20466;-69
2022/05/07 03:21:46;;;;;;;18.25;14.82;;;12.10;99.90;;;;;;2074342;28;20647;-69
2022/05/07 03:22:47;;;;;;;15.07;13.43;;;12.10;99.90;;;;;;2068511;28;20022;-69
2022/05/07 03:23:47;;;;;;;16.98;14.40;;;12.10;99.90;;;;;;2069091;28;20026;-69
2022/05/07 03:24:48;;;;;;;20.27;15.82;;;12.10;99.90;;;;;;2070471;28;20074;-69
2022/05/07 03:25:49;;;;;;;19.48;15.23;;;12.10;99.90;;;;;;2068877;28;20379;-69
2022/05/07 03:26:49;;;;;;;15.95;13.95;;;12.10;99.90;;;;;;2067183;28;20030;-69
2022/05/07 03:27:50;;;;;;;15.65;13.60;;;12.10;99.90;;;;;;2070235;28;20308;-69
2022/05/07 03:28:50;;;;;;;16.25;14.45;;;12.10;99.90;;;;;;2070143;28;20441;-69
2022/05/07 03:29:51;;;;;;;14.77;13.27;;;12.10;99.90;;;;;;2072391;28;20076;-69
2022/05/07 03:30:51;;;;;;;18.88;14.25;;;12.10;99.90;;;;;;2067095;28;20051;-69
2022/05/07 03:31:52;;;;;;;16.85;14.65;;;12.10;99.90;;;;;;2071726;28;20022;-69
2022/05/07 03:32:52;;;;;;;17.50;14.88;;;12.10;99.90;;;;;;2071096;28;20033;-69
2022/05/07 03:33:53;;;;;;;16.48;14.68;;;12.10;99.90;;;;;;2072696;28;20029;-69
2022/05/07 03:34:53;;;;;;;16.13;14.38;;;12.10;99.90;;;;;;2071741;28;20026;-69
2022/05/07 03:35:54;;;;;;;15.32;13.80;;;12.10;99.90;;;;;;2070330;28;20442;-69
2022/05/07 03:36:54;;;;;;;12.25;10.93;;;12.10;99.90;;;;;;2068268;28;20030;-69
2022/05/07 03:37:55;;;;;;;14.90;13.38;;;12.10;99.90;;;;;;2071829;28;20036;-69
2022/05/07 03:38:56;;;;;;;17.73;14.60;;;12.10;99.90;;;;;;2069349;28;20029;-69
2022/05/07 03:39:57;;;;;;;17.83;13.32;;;12.10;99.90;;;;;;2075914;28;20021;-69
2022/05/07 03:40:57;;;;;;;16.13;14.48;;;12.10;99.90;;;;;;2070229;28;20018;-69
2022/05/07 03:41:58;;;;;;;14.85;13.35;;;12.10;99.90;;;;;;2070584;28;20022;-69
2022/05/07 03:42:58;;;;;;;14.40;12.40;;;12.10;99.90;;;;;;2071043;28;20072;-69
2022/05/07 03:43:59;;;;;;;18.10;14.95;;;12.10;99.90;;;;;;2071568;28;20086;-69
2022/05/07 03:45:00;;;;;;;16.85;15.07;;;12.10;99.90;;;;;;2070621;28;20050;-69
2022/05/07 03:46:02;;;;;;;18.23;14.75;;;12.10;99.90;;;;;;2071626;28;20901;-69
2022/05/07 03:47:03;;;;;;;22.63;16.73;;;12.10;99.90;;;;;;2071541;28;20022;-69
2022/05/07 03:48:04;;;;;;;18.25;15.90;;;12.10;99.90;;;;;;2072366;28;20105;-69
2022/05/07 03:49:04;;;;;;;19.50;16.52;;;12.10;99.90;;;;;;2072209;28;20611;-69
2022/05/07 03:50:06;;;;;;;20.45;17.20;;;12.10;99.90;;;;;;2069282;28;20026;-69
2022/05/07 03:51:06;;;;;;;17.20;14.80;;;12.10;99.90;;;;;;2072947;28;20052;-69
2022/05/07 03:53:29;;;;;;;21.85;18.60;;;12.10;99.90;;;;;;2070977;28;20481;-69
2022/05/07 03:54:30;;;;;;;21.10;18.33;;;12.00;99.90;;;;;;2070186;28;20053;-69
2022/05/07 03:55:30;;;;;;;21.73;19.55;;;12.00;99.90;;;;;;2070824;28;20049;-69
2022/05/07 03:56:31;;;;;;;22.00;19.55;;;12.00;99.90;;;;;;2072062;28;20032;-69
2022/05/07 03:57:31;;;;;;;22.92;19.63;;;12.00;99.90;;;;;;2070666;28;20027;-69
2022/05/07 03:58:33;;;;;;;23.15;19.10;;;12.00;99.90;;;;;;2070808;28;20021;-69
2022/05/07 03:59:33;;;;;;;24.02;19.30;;;12.00;99.90;;;;;;2070924;28;20064;-69
2022/05/07 04:00:34;;;;;;;25.20;20.38;;;12.00;99.90;;;;;;2072063;28;20029;-69
2022/05/07 04:01:34;;;;;;;24.10;20.88;;;12.00;99.90;;;;;;2071889;28;20476;-69
2022/05/07 04:02:35;;;;;;;23.38;18.65;;;12.00;99.90;;;;;;2070793;28;20471;-69
2022/05/07 04:03:36;;;;;;;22.23;19.83;;;12.00;99.90;;;;;;2071772;28;20065;-69
2022/05/07 04:04:36;;;;;;;20.60;17.63;;;12.10;99.90;;;;;;2073176;28;20022;-69
2022/05/07 04:05:37;;;;;;;20.58;18.33;;;12.10;99.90;;;;;;2068494;28;20492;-69
2022/05/07 04:06:38;;;;;;;19.85;17.75;;;12.10;99.90;;;;;;2076319;28;20014;-69
2022/05/07 04:07:38;;;;;;;19.20;17.27;;;12.10;99.90;;;;;;2071476;28;20030;-69
2022/05/07 04:08:39;;;;;;;19.92;16.73;;;12.10;99.90;;;;;;2070986;28;20032;-69
2022/05/07 04:09:40;;;;;;;19.17;16.80;;;12.10;99.90;;;;;;2070346;28;20436;-69
2022/05/07 04:10:42;;;;;;;20.00;16.20;;;12.10;99.90;;;;;;2073843;28;20042;-69
2022/05/07 04:11:43;;;;;;;15.85;13.77;;;12.10;99.90;;;;;;2071109;28;20161;-69
2022/05/07 04:12:51;;;;;;;19.35;17.35;;;12.10;99.90;;;;;;2071509;28;20080;-69
2022/05/07 04:13:51;;;;;;;16.48;13.73;;;12.20;99.90;;;;;;2071487;28;20034;-69
2022/05/07 04:14:52;;;;;;;18.85;16.75;;;12.20;99.90;;;;;;2073745;28;20021;-69
2022/05/07 04:15:52;;;;;;;16.88;14.95;;;12.20;99.90;;;;;;2071737;28;20481;-69
2022/05/07 04:16:53;;;;;;;18.33;15.55;;;12.20;99.90;;;;;;2073383;28;20033;-69
2022/05/07 04:17:54;;;;;;;16.83;15.05;;;12.20;99.90;;;;;;2072099;28;20018;-69
2022/05/07 04:18:54;;;;;;;20.33;16.98;;;12.20;99.90;;;;;;2071115;28;20052;-69
2022/05/07 04:19:55;;;;;;;18.65;16.75;;;12.20;99.90;;;;;;2072361;28;20029;-69
2022/05/07 04:20:55;;;;;;;17.95;16.05;;;12.30;99.90;;;;;;2071029;28;20033;-69
2022/05/07 04:21:56;;;;;;;21.75;16.17;;;12.20;99.90;;;;;;2073566;28;20640;-69
2022/05/07 04:22:57;;;;;;;20.55;16.23;;;12.20;99.90;;;;;;2073592;28;20466;-69
2022/05/07 04:23:57;;;;;;;18.52;16.20;;;12.30;99.90;;;;;;2070532;28;20101;-69
2022/05/07 04:24:58;;;;;;;18.60;16.63;;;12.30;99.90;;;;;;2069666;28;20033;-69
2022/05/07 04:25:59;;;;;;;17.88;15.98;;;12.30;99.90;;;;;;2071271;28;20018;-69
2022/05/07 04:27:00;;;;;;;19.92;16.23;;;12.30;99.90;;;;;;2072379;28;20042;-69
2022/05/07 04:28:01;;;;;;;20.58;17.45;;;12.30;99.90;;;;;;2071686;28;20659;-69
2022/05/07 04:29:01;;;;;;;21.33;16.75;;;12.40;99.90;;;;;;2071716;28;20038;-69
2022/05/07 04:30:02;;;;;;;20.42;16.50;;;12.40;99.90;;;;;;2073474;28;20400;-69
2022/05/07 04:31:03;;;;;;;19.77;16.23;;;12.40;99.90;;;;;;2069663;28;20104;-69
2022/05/07 04:32:04;;;;;;;18.33;16.42;;;12.40;99.90;;;;;;2071620;28;20417;-69
2022/05/07 04:33:05;;;;;;;20.83;17.70;;;12.40;99.90;;;;;;2070430;28;20477;-69
2022/05/07 04:34:05;;;;;;;22.25;18.05;;;12.40;99.90;;;;;;2072719;28;20014;-69
2022/05/07 04:35:06;;;;;;;18.77;16.83;;;12.40;99.90;;;;;;2070108;28;20022;-69
2022/05/07 04:36:07;;;;;;;19.70;15.73;;;12.50;99.90;;;;;;2068335;28;20018;-69
2022/05/07 04:37:08;;;;;;;18.67;16.35;;;12.50;99.90;;;;;;2069699;28;20026;-69
2022/05/07 04:38:08;;;;;;;16.92;15.10;;;12.50;99.90;;;;;;2070349;28;20609;-69
2022/05/07 04:39:09;;;;;;;16.85;15.15;;;12.50;99.90;;;;;;2072006;28;20018;-69
2022/05/07 04:40:10;;;;;;;16.75;15.05;;;12.50;99.90;;;;;;2070762;28;20018;-69
2022/05/07 04:41:10;;;;;;;17.35;14.40;;;12.50;99.90;;;;;;2068355;28;20480;-69
2022/05/07 04:42:11;;;;;;;18.88;16.90;;;12.50;99.90;;;;;;2067096;28;20022;-69
2022/05/07 04:43:12;;;;;;;19.15;15.85;;;12.60;99.90;;;;;;2071573;28;20026;-69
2022/05/07 04:44:13;;;;;;;18.75;16.70;;;12.60;99.90;;;;;;2067934;28;20113;-69
2022/05/07 04:45:13;;;;;;;17.75;15.85;;;12.60;99.90;;;;;;2074805;28;20030;-69
2022/05/07 04:46:14;;;;;;;18.83;16.75;;;12.60;99.90;;;;;;2067723;28;20487;-69
2022/05/07 04:47:14;;;;;;;17.90;16.08;;;12.60;99.90;;;;;;2070065;28;20065;-69
2022/05/07 04:48:15;;;;;;;16.48;14.77;;;12.60;99.90;;;;;;2069626;28;20034;-69
2022/05/07 04:49:19;;;;;;;18.45;15.20;;;12.70;99.90;;;;;;2070413;28;20087;-69
2022/05/07 04:50:20;;;;;;;17.73;15.88;;;12.70;99.90;;;;;;2073876;28;20037;-69
2022/05/07 04:51:20;;;;;;;17.52;15.15;;;12.70;99.90;;;;;;2069809;28;20106;-69
2022/05/07 04:52:21;;;;;;;18.25;16.30;;;12.70;99.90;;;;;;2064266;28;20326;-69
2022/05/07 04:53:21;;;;;;;18.73;16.75;;;12.70;99.90;;;;;;2066493;28;20642;-69
2022/05/07 04:54:22;;;;;;;19.90;16.23;;;12.80;99.90;;;;;;2068915;28;20384;-69
2022/05/07 04:55:22;;;;;;;17.05;14.70;;;12.80;99.90;;;;;;2070796;28;20422;-69
2022/05/07 04:56:24;;;;;;;17.48;15.68;;;12.80;99.90;;;;;;2070432;28;20034;-69
2022/05/07 04:57:25;;;;;;;18.52;16.08;;;12.80;99.90;;;;;;2068286;28;20026;-69
2022/05/07 04:58:25;;;;;;;18.02;16.00;;;12.90;99.90;;;;;;2069406;28;20022;-69
2022/05/07 04:59:26;;;;;;;19.67;17.55;;;12.90;99.90;;;;;;2071006;28;20500;-69
2022/05/07 05:00:27;;;;;;;20.73;16.17;;;12.90;99.90;;;;;;2066315;28;20104;-69
2022/05/07 05:01:27;;;;;;;20.33;16.55;;;12.90;99.90;;;;;;2069608;28;20109;-69
2022/05/07 05:02:28;;;;;;;20.58;16.08;;;13.00;99.90;;;;;;2070484;28;20443;-69
2022/05/07 05:03:28;;;;;;;18.08;15.57;;;13.00;99.90;;;;;;2067130;28;20014;-69
2022/05/07 05:04:29;;;;;;;18.02;16.10;;;13.10;99.90;;;;;;2070824;28;20033;-69
2022/05/07 05:05:30;;;;;;;21.00;18.30;;;13.10;99.90;;;;;;2071650;28;20465;-69
2022/05/07 05:06:30;;;;;;;20.05;17.95;;;13.10;99.90;;;;;;2070418;28;20026;-69
2022/05/07 05:07:31;;;;;;;19.63;17.70;;;13.20;99.90;;;;;;2071435;28;20438;-69
2022/05/07 05:08:32;;;;;;;20.08;17.13;;;13.20;99.90;;;;;;2069446;28;20097;-69
2022/05/07 05:09:33;;;;;;;19.60;17.52;;;13.20;99.90;;;;;;2071809;28;20470;-69
2022/05/07 05:10:33;;;;;;;19.35;17.02;;;13.30;99.90;;;;;;2071580;28;20437;-69
2022/05/07 05:11:35;;;;;;;21.27;18.38;;;13.30;99.90;;;;;;2069535;28;20429;-69
2022/05/07 05:12:35;;;;;;;19.77;17.45;;;13.30;99.90;;;;;;2069014;28;20025;-69
2022/05/07 05:13:36;;;;;;;20.83;18.63;;;13.40;99.90;;;;;;2069834;28;20649;-69
2022/05/07 05:15:56;;;;;;;20.40;16.55;;;13.50;99.90;;;;;;2070840;28;20022;-69
2022/05/07 05:16:56;;;;;;;19.45;17.25;;;13.50;99.90;;;;;;2068491;28;20537;-69
2022/05/07 05:17:57;;;;;;;23.35;17.60;;;13.60;99.90;;;;;;2070736;28;20109;-69
2022/05/07 05:18:57;;;;;;;18.88;16.90;;;13.60;99.90;;;;;;2072499;28;20029;-69
2022/05/07 05:19:59;;;;;;;19.83;17.25;;;13.70;99.90;;;;;;2070519;28;20580;-69
2022/05/07 05:20:59;;;;;;;21.85;18.08;;;13.70;99.90;;;;;;2071378;28;20097;-69
2022/05/07 05:22:00;;;;;;;20.52;17.85;;;13.70;99.90;;;;;;2070727;28;20029;-69
2022/05/07 05:23:00;;;;;;;18.63;16.33;;;13.80;99.90;;;;;;2070499;28;20105;-69
2022/05/07 05:24:01;;;;;;;19.92;17.05;;;13.80;99.90;;;;;;2069594;28;20053;-69